Airfield :
LOGIN :

Register | Disclaimer

   EN    FR    IT 

 










Legend :    VFR   Marginal VFR   IFR   Intensive IFR   Very Intensive IFR
Visi :
Ceiling :
>= 8 km
>= 3000ft
5 to 8 km
1000 to 3000 ft
1500m to 5 km
500 to 1000 ft
800 to 1500m
200 to 500 ft
< 800m
< 200 ft
Symbols :   Thunderstorms  Fog  Heavy snow  Heavy precipitations  Wind > 20 kt
SIGMETs :     Misc.  Thunderstorms  Icing  Turbulence  Mountain Waves  Volcanic Ashes







- Airport Elevation : 59 ft
- IATA code : TSF


LIPH - Treviso

CURRENT METAR :
  • 241520Z 16005KT CAVOK 19/11 Q1022

EXPIRED METARs :
  • 241450Z 15006KT 130V190 CAVOK 20/11 Q1022
  • 241420Z VRB02KT CAVOK 21/10 Q1022
  • 241350Z VRB03KT CAVOK 20/10 Q1023
  • 241320Z 11004KT 030V180 CAVOK 20/10 Q1023
  • 241250Z 22003KT 150V260 CAVOK 20/11 Q1023

TAF TAF LIPH
Valid from the 24 at 12:00 until the 25 at 12:00 UTC


241100Z 2412/2512 VRB05KT CAVOK
TEMPO 2500/2504 1200 BR
BECMG 2503/2505 05010KT
No reported NOTAMs for that airfield.



MET'MAP, your aeronautical weather chart ! - Copyright ORBIFLY December 2007 - Disclaimer

ORBIFLY MET'MAP TEAM :

Programming & Development : Alexandra Zaïnal
Concept & Development : Baudouin d'Aumeries
Co-Development & Prog : Marc-Olivier Méhu
Technical & hardware support : Manuel Goepfert

Contact : metmap@orbifly.com




SOURCES & CREDITS :

   NOAA